sensor_id;sensor_type;location;lat;lon;timestamp;P1;durP1;ratioP1;P2;durP2;ratioP2
49824;SDS011;35714;55.708;37.478;2023-05-16T00:02:08;15.18;;;4.05;;
49824;SDS011;35714;55.708;37.478;2023-05-16T00:04:34;17.27;;;4.57;;
49824;SDS011;35714;55.708;37.478;2023-05-16T00:07:00;14.38;;;4.05;;
49824;SDS011;35714;55.708;37.478;2023-05-16T00:09:26;13.80;;;4.07;;
49824;SDS011;35714;55.708;37.478;2023-05-16T00:11:52;13.48;;;4.65;;
49824;SDS011;35714;55.708;37.478;2023-05-16T00:14:18;15.15;;;4.75;;
49824;SDS011;35714;55.708;37.478;2023-05-16T00:16:44;16.20;;;5.85;;
49824;SDS011;35714;55.708;37.478;2023-05-16T00:19:09;10.63;;;4.03;;
49824;SDS011;35714;55.708;37.478;2023-05-16T00:21:35;13.20;;;5.00;;
49824;SDS011;35714;55.708;37.478;2023-05-16T00:24:01;13.60;;;4.28;;
49824;SDS011;35714;55.708;37.478;2023-05-16T00:26:28;12.55;;;4.25;;
49824;SDS011;35714;55.708;37.478;2023-05-16T00:28:54;14.02;;;4.00;;
49824;SDS011;35714;55.708;37.478;2023-05-16T00:31:19;12.10;;;3.78;;
49824;SDS011;35714;55.708;37.478;2023-05-16T00:33:45;17.65;;;4.70;;
49824;SDS011;35714;55.708;37.478;2023-05-16T00:36:11;19.38;;;4.78;;
49824;SDS011;35714;55.708;37.478;2023-05-16T00:38:37;14.05;;;4.15;;
49824;SDS011;35714;55.708;37.478;2023-05-16T00:41:04;14.75;;;5.03;;
49824;SDS011;35714;55.708;37.478;2023-05-16T00:43:30;15.25;;;4.35;;
49824;SDS011;35714;55.708;37.478;2023-05-16T00:45:55;12.02;;;4.00;;
49824;SDS011;35714;55.708;37.478;2023-05-16T00:48:22;13.27;;;4.32;;
49824;SDS011;35714;55.708;37.478;2023-05-16T00:50:48;11.35;;;4.60;;
49824;SDS011;35714;55.708;37.478;2023-05-16T00:53:14;13.68;;;4.38;;
49824;SDS011;35714;55.708;37.478;2023-05-16T00:55:41;17.23;;;4.00;;
49824;SDS011;35714;55.708;37.478;2023-05-16T00:58:07;13.98;;;3.95;;
49824;SDS011;35714;55.708;37.478;2023-05-16T01:00:33;18.08;;;4.03;;
49824;SDS011;35714;55.708;37.478;2023-05-16T01:02:59;11.02;;;4.53;;
49824;SDS011;35714;55.708;37.478;2023-05-16T01:05:25;15.98;;;5.25;;
49824;SDS011;35714;55.708;37.478;2023-05-16T01:07:50;14.05;;;4.20;;
49824;SDS011;35714;55.708;37.478;2023-05-16T01:10:16;17.55;;;4.20;;
49824;SDS011;35714;55.708;37.478;2023-05-16T01:15:36;19.45;;;6.03;;
49824;SDS011;35714;55.708;37.478;2023-05-16T01:21:03;11.98;;;4.80;;
49824;SDS011;35714;55.708;37.478;2023-05-16T01:23:48;21.55;;;4.55;;
49824;SDS011;35714;55.708;37.478;2023-05-16T01:26:22;13.77;;;4.43;;
49824;SDS011;35714;55.708;37.478;2023-05-16T01:28:51;15.57;;;5.45;;
49824;SDS011;35714;55.708;37.478;2023-05-16T01:31:17;21.45;;;5.65;;
49824;SDS011;35714;55.708;37.478;2023-05-16T01:33:44;16.55;;;4.70;;
49824;SDS011;35714;55.708;37.478;2023-05-16T01:36:12;15.27;;;5.53;;
49824;SDS011;35714;55.708;37.478;2023-05-16T01:38:53;12.70;;;5.95;;
49824;SDS011;35714;55.708;37.478;2023-05-16T01:47:17;13.63;;;4.68;;
49824;SDS011;35714;55.708;37.478;2023-05-16T01:55:12;15.25;;;5.03;;
49824;SDS011;35714;55.708;37.478;2023-05-16T01:57:41;14.05;;;4.88;;
49824;SDS011;35714;55.708;37.478;2023-05-16T02:00:07;17.60;;;5.20;;
49824;SDS011;35714;55.708;37.478;2023-05-16T02:02:40;13.40;;;4.82;;
49824;SDS011;35714;55.708;37.478;2023-05-16T02:05:06;11.15;;;4.75;;
49824;SDS011;35714;55.708;37.478;2023-05-16T02:07:32;10.55;;;4.22;;
49824;SDS011;35714;55.708;37.478;2023-05-16T02:09:58;11.57;;;4.95;;
49824;SDS011;35714;55.708;37.478;2023-05-16T02:12:24;17.55;;;4.90;;
49824;SDS011;35714;55.708;37.478;2023-05-16T02:14:50;21.23;;;5.10;;
49824;SDS011;35714;55.708;37.478;2023-05-16T02:17:16;17.67;;;4.47;;
49824;SDS011;35714;55.708;37.478;2023-05-16T02:19:42;15.90;;;5.30;;
49824;SDS011;35714;55.708;37.478;2023-05-16T02:22:11;12.30;;;4.82;;
49824;SDS011;35714;55.708;37.478;2023-05-16T02:24:37;17.80;;;6.07;;
49824;SDS011;35714;55.708;37.478;2023-05-16T02:27:02;18.80;;;5.40;;
49824;SDS011;35714;55.708;37.478;2023-05-16T02:29:28;20.60;;;5.38;;
49824;SDS011;35714;55.708;37.478;2023-05-16T02:31:55;15.75;;;4.85;;
49824;SDS011;35714;55.708;37.478;2023-05-16T02:34:20;16.67;;;5.63;;
49824;SDS011;35714;55.708;37.478;2023-05-16T02:36:46;15.65;;;5.97;;
49824;SDS011;35714;55.708;37.478;2023-05-16T02:39:12;14.07;;;5.38;;
49824;SDS011;35714;55.708;37.478;2023-05-16T02:41:37;13.75;;;5.05;;
49824;SDS011;35714;55.708;37.478;2023-05-16T02:44:03;13.98;;;4.95;;
49824;SDS011;35714;55.708;37.478;2023-05-16T02:46:30;19.13;;;5.68;;
49824;SDS011;35714;55.708;37.478;2023-05-16T02:48:58;14.43;;;4.80;;
49824;SDS011;35714;55.708;37.478;2023-05-16T02:51:25;14.70;;;5.15;;
49824;SDS011;35714;55.708;37.478;2023-05-16T02:53:51;19.05;;;5.90;;
49824;SDS011;35714;55.708;37.478;2023-05-16T02:56:18;15.48;;;5.70;;
49824;SDS011;35714;55.708;37.478;2023-05-16T02:58:47;19.05;;;5.10;;
49824;SDS011;35714;55.708;37.478;2023-05-16T03:01:15;13.90;;;4.95;;
49824;SDS011;35714;55.708;37.478;2023-05-16T03:03:41;11.88;;;4.53;;
49824;SDS011;35714;55.708;37.478;2023-05-16T03:06:07;13.43;;;6.05;;
49824;SDS011;35714;55.708;37.478;2023-05-16T03:08:33;13.07;;;5.30;;
49824;SDS011;35714;55.708;37.478;2023-05-16T03:11:00;14.30;;;5.05;;
49824;SDS011;35714;55.708;37.478;2023-05-16T03:13:26;11.80;;;4.78;;
49824;SDS011;35714;55.708;37.478;2023-05-16T03:15:52;12.50;;;4.38;;
49824;SDS011;35714;55.708;37.478;2023-05-16T03:18:18;11.60;;;4.10;;
49824;SDS011;35714;55.708;37.478;2023-05-16T03:20:44;12.05;;;4.72;;
49824;SDS011;35714;55.708;37.478;2023-05-16T03:23:10;7.75;;;3.80;;
49824;SDS011;35714;55.708;37.478;2023-05-16T03:25:36;9.95;;;4.22;;
49824;SDS011;35714;55.708;37.478;2023-05-16T03:28:06;9.50;;;3.33;;
49824;SDS011;35714;55.708;37.478;2023-05-16T03:30:33;9.68;;;3.03;;
49824;SDS011;35714;55.708;37.478;2023-05-16T03:32:59;7.32;;;3.42;;
49824;SDS011;35714;55.708;37.478;2023-05-16T03:35:26;7.15;;;2.92;;
49824;SDS011;35714;55.708;37.478;2023-05-16T03:37:52;9.82;;;2.97;;
49824;SDS011;35714;55.708;37.478;2023-05-16T03:40:19;9.25;;;3.25;;
49824;SDS011;35714;55.708;37.478;2023-05-16T03:42:45;7.93;;;2.78;;
49824;SDS011;35714;55.708;37.478;2023-05-16T03:45:10;13.15;;;2.50;;
49824;SDS011;35714;55.708;37.478;2023-05-16T03:47:36;6.90;;;2.80;;
49824;SDS011;35714;55.708;37.478;2023-05-16T03:50:02;7.43;;;2.38;;
49824;SDS011;35714;55.708;37.478;2023-05-16T03:52:29;14.20;;;3.15;;
49824;SDS011;35714;55.708;37.478;2023-05-16T03:54:55;9.57;;;2.28;;
49824;SDS011;35714;55.708;37.478;2023-05-16T03:57:21;8.75;;;2.60;;
49824;SDS011;35714;55.708;37.478;2023-05-16T03:59:47;7.63;;;2.42;;
49824;SDS011;35714;55.708;37.478;2023-05-16T04:02:12;5.03;;;1.92;;
49824;SDS011;35714;55.708;37.478;2023-05-16T04:04:38;6.88;;;2.40;;
49824;SDS011;35714;55.708;37.478;2023-05-16T04:07:04;5.22;;;2.10;;
49824;SDS011;35714;55.708;37.478;2023-05-16T04:09:30;6.63;;;2.05;;
49824;SDS011;35714;55.708;37.478;2023-05-16T04:11:57;8.57;;;2.05;;
49824;SDS011;35714;55.708;37.478;2023-05-16T04:14:26;12.93;;;2.55;;
49824;SDS011;35714;55.708;37.478;2023-05-16T04:16:52;5.93;;;2.10;;
49824;SDS011;35714;55.708;37.478;2023-05-16T04:19:17;3.95;;;1.45;;
49824;SDS011;35714;55.708;37.478;2023-05-16T04:21:43;4.65;;;1.60;;
49824;SDS011;35714;55.708;37.478;2023-05-16T04:24:09;7.68;;;1.77;;
49824;SDS011;35714;55.708;37.478;2023-05-16T04:26:35;9.05;;;1.45;;
49824;SDS011;35714;55.708;37.478;2023-05-16T04:29:02;6.45;;;1.85;;
49824;SDS011;35714;55.708;37.478;2023-05-16T04:31:28;6.20;;;2.00;;
49824;SDS011;35714;55.708;37.478;2023-05-16T04:33:55;7.50;;;1.80;;
49824;SDS011;35714;55.708;37.478;2023-05-16T04:36:22;3.10;;;1.30;;
49824;SDS011;35714;55.708;37.478;2023-05-16T04:38:48;5.05;;;1.48;;
49824;SDS011;35714;55.708;37.478;2023-05-16T04:41:13;6.28;;;1.50;;
49824;SDS011;35714;55.708;37.478;2023-05-16T04:43:39;6.43;;;1.35;;
49824;SDS011;35714;55.708;37.478;2023-05-16T04:46:06;8.75;;;1.60;;
49824;SDS011;35714;55.708;37.478;2023-05-16T04:48:32;12.05;;;1.52;;
49824;SDS011;35714;55.708;37.478;2023-05-16T04:50:58;4.40;;;1.50;;
49824;SDS011;35714;55.708;37.478;2023-05-16T04:53:24;4.13;;;2.00;;
49824;SDS011;35714;55.708;37.478;2023-05-16T04:55:50;7.53;;;3.05;;
49824;SDS011;35714;55.708;37.478;2023-05-16T04:58:16;8.63;;;2.75;;
49824;SDS011;35714;55.708;37.478;2023-05-16T05:00:42;8.30;;;2.15;;
49824;SDS011;35714;55.708;37.478;2023-05-16T05:03:08;6.38;;;2.78;;
49824;SDS011;35714;55.708;37.478;2023-05-16T05:05:33;4.70;;;1.50;;
49824;SDS011;35714;55.708;37.478;2023-05-16T05:07:59;9.27;;;1.75;;
49824;SDS011;35714;55.708;37.478;2023-05-16T05:10:26;5.63;;;1.20;;
49824;SDS011;35714;55.708;37.478;2023-05-16T05:12:56;7.68;;;1.75;;
49824;SDS011;35714;55.708;37.478;2023-05-16T05:15:22;4.88;;;0.98;;
49824;SDS011;35714;55.708;37.478;2023-05-16T05:17:48;3.15;;;1.02;;
49824;SDS011;35714;55.708;37.478;2023-05-16T05:20:13;2.80;;;1.15;;
49824;SDS011;35714;55.708;37.478;2023-05-16T05:22:39;4.28;;;1.48;;
49824;SDS011;35714;55.708;37.478;2023-05-16T05:25:05;4.55;;;1.30;;
49824;SDS011;35714;55.708;37.478;2023-05-16T05:27:31;5.38;;;1.70;;
49824;SDS011;35714;55.708;37.478;2023-05-16T05:29:57;5.13;;;1.88;;
49824;SDS011;35714;55.708;37.478;2023-05-16T05:32:22;5.43;;;1.30;;
49824;SDS011;35714;55.708;37.478;2023-05-16T05:34:48;2.83;;;1.00;;
49824;SDS011;35714;55.708;37.478;2023-05-16T05:37:14;6.13;;;1.42;;
49824;SDS011;35714;55.708;37.478;2023-05-16T05:39:39;6.57;;;2.00;;
49824;SDS011;35714;55.708;37.478;2023-05-16T05:42:05;4.40;;;1.55;;
49824;SDS011;35714;55.708;37.478;2023-05-16T05:44:31;3.50;;;1.17;;
49824;SDS011;35714;55.708;37.478;2023-05-16T05:46:58;3.88;;;1.17;;
49824;SDS011;35714;55.708;37.478;2023-05-16T05:49:24;4.00;;;1.40;;
49824;SDS011;35714;55.708;37.478;2023-05-16T05:51:50;10.02;;;3.00;;
49824;SDS011;35714;55.708;37.478;2023-05-16T05:54:17;4.45;;;1.30;;
49824;SDS011;35714;55.708;37.478;2023-05-16T05:57:04;5.75;;;1.55;;
49824;SDS011;35714;55.708;37.478;2023-05-16T05:59:30;5.63;;;1.80;;
49824;SDS011;35714;55.708;37.478;2023-05-16T06:01:56;6.47;;;1.38;;
49824;SDS011;35714;55.708;37.478;2023-05-16T06:04:22;4.05;;;1.30;;
49824;SDS011;35714;55.708;37.478;2023-05-16T06:06:48;4.88;;;1.52;;
49824;SDS011;35714;55.708;37.478;2023-05-16T06:09:14;4.75;;;1.38;;
49824;SDS011;35714;55.708;37.478;2023-05-16T06:11:40;8.75;;;1.23;;
49824;SDS011;35714;55.708;37.478;2023-05-16T06:14:06;6.20;;;1.08;;
49824;SDS011;35714;55.708;37.478;2023-05-16T06:16:32;4.90;;;1.00;;
49824;SDS011;35714;55.708;37.478;2023-05-16T06:18:57;5.47;;;1.25;;
49824;SDS011;35714;55.708;37.478;2023-05-16T06:21:23;5.43;;;1.17;;
49824;SDS011;35714;55.708;37.478;2023-05-16T06:23:49;3.40;;;1.00;;
49824;SDS011;35714;55.708;37.478;2023-05-16T06:26:15;6.40;;;1.33;;
49824;SDS011;35714;55.708;37.478;2023-05-16T06:28:40;3.25;;;0.90;;
49824;SDS011;35714;55.708;37.478;2023-05-16T06:31:06;4.03;;;1.00;;
49824;SDS011;35714;55.708;37.478;2023-05-16T06:33:32;3.85;;;0.93;;
49824;SDS011;35714;55.708;37.478;2023-05-16T06:35:58;7.82;;;1.23;;
49824;SDS011;35714;55.708;37.478;2023-05-16T06:38:24;3.08;;;0.93;;
49824;SDS011;35714;55.708;37.478;2023-05-16T06:40:50;3.67;;;1.35;;
49824;SDS011;35714;55.708;37.478;2023-05-16T06:43:16;8.57;;;2.85;;
49824;SDS011;35714;55.708;37.478;2023-05-16T06:45:43;5.47;;;1.60;;
49824;SDS011;35714;55.708;37.478;2023-05-16T06:48:12;4.72;;;1.02;;
49824;SDS011;35714;55.708;37.478;2023-05-16T06:50:39;7.68;;;1.92;;
49824;SDS011;35714;55.708;37.478;2023-05-16T06:53:04;4.20;;;1.00;;
49824;SDS011;35714;55.708;37.478;2023-05-16T06:55:32;6.38;;;1.00;;
49824;SDS011;35714;55.708;37.478;2023-05-16T06:57:58;5.47;;;1.08;;
49824;SDS011;35714;55.708;37.478;2023-05-16T07:00:23;7.00;;;1.17;;
49824;SDS011;35714;55.708;37.478;2023-05-16T07:02:50;3.55;;;1.42;;
49824;SDS011;35714;55.708;37.478;2023-05-16T07:05:15;2.80;;;0.82;;
49824;SDS011;35714;55.708;37.478;2023-05-16T07:07:41;10.15;;;1.38;;
49824;SDS011;35714;55.708;37.478;2023-05-16T07:10:07;2.60;;;0.90;;
49824;SDS011;35714;55.708;37.478;2023-05-16T07:12:34;6.18;;;1.00;;
49824;SDS011;35714;55.708;37.478;2023-05-16T07:15:01;6.28;;;1.27;;
49824;SDS011;35714;55.708;37.478;2023-05-16T07:17:32;5.00;;;1.20;;
49824;SDS011;35714;55.708;37.478;2023-05-16T07:19:58;3.08;;;1.05;;
49824;SDS011;35714;55.708;37.478;2023-05-16T07:22:24;3.28;;;0.63;;
49824;SDS011;35714;55.708;37.478;2023-05-16T07:24:50;1.42;;;0.60;;
49824;SDS011;35714;55.708;37.478;2023-05-16T07:27:18;2.95;;;0.50;;
49824;SDS011;35714;55.708;37.478;2023-05-16T07:29:44;4.47;;;0.80;;
49824;SDS011;35714;55.708;37.478;2023-05-16T07:32:10;6.63;;;0.93;;
49824;SDS011;35714;55.708;37.478;2023-05-16T07:34:35;2.33;;;0.85;;
49824;SDS011;35714;55.708;37.478;2023-05-16T07:37:01;2.40;;;0.60;;
49824;SDS011;35714;55.708;37.478;2023-05-16T07:39:27;6.85;;;1.00;;
49824;SDS011;35714;55.708;37.478;2023-05-16T07:41:53;4.10;;;0.85;;
49824;SDS011;35714;55.708;37.478;2023-05-16T07:44:19;5.50;;;1.00;;
49824;SDS011;35714;55.708;37.478;2023-05-16T07:46:44;1.83;;;0.43;;
49824;SDS011;35714;55.708;37.478;2023-05-16T07:49:10;1.85;;;0.45;;
49824;SDS011;35714;55.708;37.478;2023-05-16T07:51:36;3.20;;;0.50;;
49824;SDS011;35714;55.708;37.478;2023-05-16T07:54:01;7.50;;;0.70;;
49824;SDS011;35714;55.708;37.478;2023-05-16T07:56:27;5.47;;;0.50;;
49824;SDS011;35714;55.708;37.478;2023-05-16T07:58:53;2.05;;;0.60;;
49824;SDS011;35714;55.708;37.478;2023-05-16T08:01:19;7.90;;;0.90;;
49824;SDS011;35714;55.708;37.478;2023-05-16T08:03:45;3.63;;;0.50;;
49824;SDS011;35714;55.708;37.478;2023-05-16T08:06:11;2.75;;;0.60;;
49824;SDS011;35714;55.708;37.478;2023-05-16T08:08:36;1.27;;;0.60;;
49824;SDS011;35714;55.708;37.478;2023-05-16T08:11:02;1.95;;;0.73;;
49824;SDS011;35714;55.708;37.478;2023-05-16T08:13:30;3.72;;;0.82;;
49824;SDS011;35714;55.708;37.478;2023-05-16T08:15:56;6.38;;;0.85;;
49824;SDS011;35714;55.708;37.478;2023-05-16T08:18:21;3.15;;;0.70;;
49824;SDS011;35714;55.708;37.478;2023-05-16T08:20:47;2.53;;;0.70;;
49824;SDS011;35714;55.708;37.478;2023-05-16T08:23:13;2.83;;;0.70;;
49824;SDS011;35714;55.708;37.478;2023-05-16T08:25:39;3.00;;;0.88;;
49824;SDS011;35714;55.708;37.478;2023-05-16T08:28:04;1.83;;;0.52;;
49824;SDS011;35714;55.708;37.478;2023-05-16T08:30:30;2.88;;;0.80;;
49824;SDS011;35714;55.708;37.478;2023-05-16T08:32:56;1.92;;;0.55;;
49824;SDS011;35714;55.708;37.478;2023-05-16T08:35:22;2.47;;;0.50;;
49824;SDS011;35714;55.708;37.478;2023-05-16T08:37:47;3.22;;;0.65;;
49824;SDS011;35714;55.708;37.478;2023-05-16T08:40:13;2.85;;;1.00;;
49824;SDS011;35714;55.708;37.478;2023-05-16T08:42:40;1.77;;;0.57;;
49824;SDS011;35714;55.708;37.478;2023-05-16T08:45:06;6.25;;;0.65;;
49824;SDS011;35714;55.708;37.478;2023-05-16T08:47:32;2.25;;;0.65;;
49824;SDS011;35714;55.708;37.478;2023-05-16T08:50:04;5.85;;;0.90;;
49824;SDS011;35714;55.708;37.478;2023-05-16T08:52:33;4.50;;;0.85;;
49824;SDS011;35714;55.708;37.478;2023-05-16T08:55:02;3.42;;;0.82;;
49824;SDS011;35714;55.708;37.478;2023-05-16T08:57:35;3.67;;;0.95;;
49824;SDS011;35714;55.708;37.478;2023-05-16T09:00:02;5.95;;;1.00;;
49824;SDS011;35714;55.708;37.478;2023-05-16T09:02:32;4.25;;;0.98;;
49824;SDS011;35714;55.708;37.478;2023-05-16T09:04:59;3.33;;;0.80;;
49824;SDS011;35714;55.708;37.478;2023-05-16T09:07:25;4.63;;;0.82;;
49824;SDS011;35714;55.708;37.478;2023-05-16T09:09:51;3.08;;;0.80;;
49824;SDS011;35714;55.708;37.478;2023-05-16T09:12:18;2.88;;;0.70;;
49824;SDS011;35714;55.708;37.478;2023-05-16T09:14:44;2.20;;;0.82;;
49824;SDS011;35714;55.708;37.478;2023-05-16T09:17:11;2.00;;;0.70;;
49824;SDS011;35714;55.708;37.478;2023-05-16T09:22:13;3.22;;;1.20;;
49824;SDS011;35714;55.708;37.478;2023-05-16T09:24:40;4.38;;;1.15;;
49824;SDS011;35714;55.708;37.478;2023-05-16T09:27:10;3.50;;;1.02;;
49824;SDS011;35714;55.708;37.478;2023-05-16T09:29:49;5.35;;;0.85;;
49824;SDS011;35714;55.708;37.478;2023-05-16T09:32:15;7.53;;;1.17;;
49824;SDS011;35714;55.708;37.478;2023-05-16T09:34:45;5.32;;;1.33;;
49824;SDS011;35714;55.708;37.478;2023-05-16T09:37:14;2.92;;;0.90;;
49824;SDS011;35714;55.708;37.478;2023-05-16T09:39:50;3.55;;;1.00;;
49824;SDS011;35714;55.708;37.478;2023-05-16T09:42:18;6.90;;;0.80;;
49824;SDS011;35714;55.708;37.478;2023-05-16T09:44:48;5.57;;;0.90;;
49824;SDS011;35714;55.708;37.478;2023-05-16T09:47:15;7.72;;;0.80;;
49824;SDS011;35714;55.708;37.478;2023-05-16T09:49:46;1.65;;;0.50;;
49824;SDS011;35714;55.708;37.478;2023-05-16T09:52:16;5.60;;;0.80;;
49824;SDS011;35714;55.708;37.478;2023-05-16T09:54:42;2.28;;;0.80;;
49824;SDS011;35714;55.708;37.478;2023-05-16T09:57:11;2.80;;;0.75;;
49824;SDS011;35714;55.708;37.478;2023-05-16T09:59:37;2.97;;;0.55;;
49824;SDS011;35714;55.708;37.478;2023-05-16T10:02:04;3.88;;;1.00;;
49824;SDS011;35714;55.708;37.478;2023-05-16T10:04:31;6.10;;;0.70;;
49824;SDS011;35714;55.708;37.478;2023-05-16T10:06:58;2.70;;;0.57;;
49824;SDS011;35714;55.708;37.478;2023-05-16T10:09:27;3.13;;;0.60;;
49824;SDS011;35714;55.708;37.478;2023-05-16T10:11:56;3.47;;;0.70;;
49824;SDS011;35714;55.708;37.478;2023-05-16T10:14:22;2.40;;;0.70;;
49824;SDS011;35714;55.708;37.478;2023-05-16T10:16:50;6.40;;;0.70;;
49824;SDS011;35714;55.708;37.478;2023-05-16T10:19:18;3.25;;;0.68;;
49824;SDS011;35714;55.708;37.478;2023-05-16T10:21:47;4.97;;;0.70;;
49824;SDS011;35714;55.708;37.478;2023-05-16T10:24:17;2.13;;;0.60;;
49824;SDS011;35714;55.708;37.478;2023-05-16T10:26:50;5.53;;;0.63;;
49824;SDS011;35714;55.708;37.478;2023-05-16T10:29:17;2.40;;;0.60;;
49824;SDS011;35714;55.708;37.478;2023-05-16T10:31:43;4.20;;;0.55;;
49824;SDS011;35714;55.708;37.478;2023-05-16T10:34:10;2.25;;;0.40;;
49824;SDS011;35714;55.708;37.478;2023-05-16T10:36:36;4.13;;;0.60;;
49824;SDS011;35714;55.708;37.478;2023-05-16T10:39:03;6.88;;;0.80;;
49824;SDS011;35714;55.708;37.478;2023-05-16T10:41:30;3.67;;;0.50;;
49824;SDS011;35714;55.708;37.478;2023-05-16T10:43:57;2.33;;;0.40;;
49824;SDS011;35714;55.708;37.478;2023-05-16T10:46:23;2.60;;;0.80;;
49824;SDS011;35714;55.708;37.478;2023-05-16T10:48:50;2.55;;;0.60;;
49824;SDS011;35714;55.708;37.478;2023-05-16T10:53:51;3.67;;;0.88;;
49824;SDS011;35714;55.708;37.478;2023-05-16T10:56:27;2.67;;;0.60;;
49824;SDS011;35714;55.708;37.478;2023-05-16T10:58:53;6.60;;;0.75;;
49824;SDS011;35714;55.708;37.478;2023-05-16T11:01:27;1.20;;;0.40;;
49824;SDS011;35714;55.708;37.478;2023-05-16T11:09:07;8.03;;;0.90;;
49824;SDS011;35714;55.708;37.478;2023-05-16T11:11:45;2.33;;;0.60;;
49824;SDS011;35714;55.708;37.478;2023-05-16T11:14:21;2.50;;;0.63;;
49824;SDS011;35714;55.708;37.478;2023-05-16T11:24:34;3.50;;;1.00;;
49824;SDS011;35714;55.708;37.478;2023-05-16T11:27:02;4.45;;;0.60;;
49824;SDS011;35714;55.708;37.478;2023-05-16T11:29:32;1.20;;;0.47;;
49824;SDS011;35714;55.708;37.478;2023-05-16T11:32:00;3.28;;;0.75;;
49824;SDS011;35714;55.708;37.478;2023-05-16T11:34:28;5.93;;;0.70;;
49824;SDS011;35714;55.708;37.478;2023-05-16T11:36:55;2.55;;;0.63;;
49824;SDS011;35714;55.708;37.478;2023-05-16T11:39:21;3.63;;;0.95;;
49824;SDS011;35714;55.708;37.478;2023-05-16T11:41:49;1.98;;;0.73;;
49824;SDS011;35714;55.708;37.478;2023-05-16T11:44:15;3.80;;;0.73;;
49824;SDS011;35714;55.708;37.478;2023-05-16T11:46:41;2.55;;;0.60;;
49824;SDS011;35714;55.708;37.478;2023-05-16T11:49:10;7.97;;;0.95;;
49824;SDS011;35714;55.708;37.478;2023-05-16T11:51:42;7.68;;;1.35;;
49824;SDS011;35714;55.708;37.478;2023-05-16T11:54:08;4.22;;;1.13;;
49824;SDS011;35714;55.708;37.478;2023-05-16T11:56:34;4.28;;;0.65;;
49824;SDS011;35714;55.708;37.478;2023-05-16T11:59:01;3.08;;;0.60;;
49824;SDS011;35714;55.708;37.478;2023-05-16T12:01:32;3.08;;;0.70;;
49824;SDS011;35714;55.708;37.478;2023-05-16T12:03:58;2.53;;;0.60;;
49824;SDS011;35714;55.708;37.478;2023-05-16T12:06:24;1.48;;;0.47;;
49824;SDS011;35714;55.708;37.478;2023-05-16T12:08:51;2.60;;;0.65;;
49824;SDS011;35714;55.708;37.478;2023-05-16T12:11:17;1.52;;;0.57;;
49824;SDS011;35714;55.708;37.478;2023-05-16T12:13:43;3.38;;;0.80;;
49824;SDS011;35714;55.708;37.478;2023-05-16T12:16:10;2.45;;;0.68;;
49824;SDS011;35714;55.708;37.478;2023-05-16T12:18:36;5.13;;;0.98;;
49824;SDS011;35714;55.708;37.478;2023-05-16T12:21:03;5.65;;;0.70;;
49824;SDS011;35714;55.708;37.478;2023-05-16T12:23:31;1.95;;;0.60;;
49824;SDS011;35714;55.708;37.478;2023-05-16T12:25:58;1.55;;;0.57;;
49824;SDS011;35714;55.708;37.478;2023-05-16T12:28:32;2.92;;;0.50;;
49824;SDS011;35714;55.708;37.478;2023-05-16T12:30:59;5.47;;;0.90;;
49824;SDS011;35714;55.708;37.478;2023-05-16T12:33:26;5.53;;;0.70;;
49824;SDS011;35714;55.708;37.478;2023-05-16T12:35:52;2.05;;;0.60;;
49824;SDS011;35714;55.708;37.478;2023-05-16T12:38:19;5.22;;;0.90;;
49824;SDS011;35714;55.708;37.478;2023-05-16T12:40:45;2.05;;;0.60;;
49824;SDS011;35714;55.708;37.478;2023-05-16T12:43:15;9.13;;;0.93;;
49824;SDS011;35714;55.708;37.478;2023-05-16T12:48:39;5.38;;;0.73;;
49824;SDS011;35714;55.708;37.478;2023-05-16T12:51:10;2.05;;;0.40;;
49824;SDS011;35714;55.708;37.478;2023-05-16T12:53:43;2.33;;;0.60;;
49824;SDS011;35714;55.708;37.478;2023-05-16T12:56:12;1.88;;;0.57;;
49824;SDS011;35714;55.708;37.478;2023-05-16T12:58:42;3.75;;;0.63;;
49824;SDS011;35714;55.708;37.478;2023-05-16T13:01:08;2.65;;;0.65;;
49824;SDS011;35714;55.708;37.478;2023-05-16T13:03:34;1.40;;;0.40;;
49824;SDS011;35714;55.708;37.478;2023-05-16T13:06:01;6.72;;;0.90;;
49824;SDS011;35714;55.708;37.478;2023-05-16T13:08:28;1.85;;;0.65;;
49824;SDS011;35714;55.708;37.478;2023-05-16T13:10:54;2.38;;;0.60;;
49824;SDS011;35714;55.708;37.478;2023-05-16T13:13:19;3.40;;;0.50;;
49824;SDS011;35714;55.708;37.478;2023-05-16T13:15:45;2.22;;;0.70;;
49824;SDS011;35714;55.708;37.478;2023-05-16T13:18:12;1.77;;;0.50;;
49824;SDS011;35714;55.708;37.478;2023-05-16T13:20:38;2.53;;;0.52;;
49824;SDS011;35714;55.708;37.478;2023-05-16T13:23:04;2.88;;;0.60;;
49824;SDS011;35714;55.708;37.478;2023-05-16T13:25:31;6.15;;;0.68;;
49824;SDS011;35714;55.708;37.478;2023-05-16T13:27:57;1.67;;;0.55;;
49824;SDS011;35714;55.708;37.478;2023-05-16T13:30:23;2.20;;;0.65;;
49824;SDS011;35714;55.708;37.478;2023-05-16T13:32:49;2.83;;;0.65;;
49824;SDS011;35714;55.708;37.478;2023-05-16T13:35:16;2.30;;;0.50;;
49824;SDS011;35714;55.708;37.478;2023-05-16T13:37:43;2.75;;;0.50;;
49824;SDS011;35714;55.708;37.478;2023-05-16T13:40:09;2.67;;;1.15;;
49824;SDS011;35714;55.708;37.478;2023-05-16T13:42:35;2.15;;;0.68;;
49824;SDS011;35714;55.708;37.478;2023-05-16T13:45:03;3.58;;;0.82;;
49824;SDS011;35714;55.708;37.478;2023-05-16T13:47:32;4.95;;;0.70;;
49824;SDS011;35714;55.708;37.478;2023-05-16T13:49:58;2.15;;;0.70;;
49824;SDS011;35714;55.708;37.478;2023-05-16T13:52:29;2.97;;;0.88;;
49824;SDS011;35714;55.708;37.478;2023-05-16T13:54:55;3.67;;;1.15;;
49824;SDS011;35714;55.708;37.478;2023-05-16T13:57:21;6.00;;;1.10;;
49824;SDS011;35714;55.708;37.478;2023-05-16T13:59:47;3.28;;;1.10;;
49824;SDS011;35714;55.708;37.478;2023-05-16T14:02:13;3.22;;;0.60;;
49824;SDS011;35714;55.708;37.478;2023-05-16T14:04:39;3.78;;;1.10;;
49824;SDS011;35714;55.708;37.478;2023-05-16T14:07:05;2.55;;;0.60;;
49824;SDS011;35714;55.708;37.478;2023-05-16T14:09:31;6.78;;;0.85;;
49824;SDS011;35714;55.708;37.478;2023-05-16T14:11:59;3.28;;;1.17;;
49824;SDS011;35714;55.708;37.478;2023-05-16T14:14:27;1.95;;;0.82;;
49824;SDS011;35714;55.708;37.478;2023-05-16T14:16:52;3.67;;;0.80;;
49824;SDS011;35714;55.708;37.478;2023-05-16T14:19:18;2.95;;;0.63;;
49824;SDS011;35714;55.708;37.478;2023-05-16T14:21:44;2.88;;;0.85;;
49824;SDS011;35714;55.708;37.478;2023-05-16T14:24:09;5.70;;;0.77;;
49824;SDS011;35714;55.708;37.478;2023-05-16T14:26:36;6.22;;;1.08;;
49824;SDS011;35714;55.708;37.478;2023-05-16T14:29:01;2.72;;;0.57;;
49824;SDS011;35714;55.708;37.478;2023-05-16T14:31:28;2.80;;;0.80;;
49824;SDS011;35714;55.708;37.478;2023-05-16T14:33:54;3.88;;;1.02;;
49824;SDS011;35714;55.708;37.478;2023-05-16T14:36:19;1.70;;;0.60;;
49824;SDS011;35714;55.708;37.478;2023-05-16T14:38:45;4.32;;;1.17;;
49824;SDS011;35714;55.708;37.478;2023-05-16T14:41:11;3.83;;;1.70;;
49824;SDS011;35714;55.708;37.478;2023-05-16T14:43:36;3.20;;;1.20;;
49824;SDS011;35714;55.708;37.478;2023-05-16T14:46:03;2.40;;;1.02;;
49824;SDS011;35714;55.708;37.478;2023-05-16T14:48:28;5.18;;;1.75;;
49824;SDS011;35714;55.708;37.478;2023-05-16T14:50:55;5.95;;;1.50;;
49824;SDS011;35714;55.708;37.478;2023-05-16T14:53:21;3.65;;;1.00;;
49824;SDS011;35714;55.708;37.478;2023-05-16T14:55:47;4.28;;;0.88;;
49824;SDS011;35714;55.708;37.478;2023-05-16T14:58:13;4.63;;;0.82;;
49824;SDS011;35714;55.708;37.478;2023-05-16T15:00:39;7.20;;;1.15;;
49824;SDS011;35714;55.708;37.478;2023-05-16T15:03:05;2.40;;;0.70;;
49824;SDS011;35714;55.708;37.478;2023-05-16T15:05:31;4.50;;;1.10;;
49824;SDS011;35714;55.708;37.478;2023-05-16T15:07:57;1.73;;;0.60;;